sensor_id;sensor_type;location;lat;lon;timestamp;temperature;humidity
25058;DHT22;13057;50.978;11.034;2024-03-02T00:00:22;8.50;99.90
25058;DHT22;13057;50.978;11.034;2024-03-02T00:02:50;8.50;99.90
25058;DHT22;13057;50.978;11.034;2024-03-02T00:05:20;8.50;99.90
25058;DHT22;13057;50.978;11.034;2024-03-02T00:07:52;8.50;99.90
25058;DHT22;13057;50.978;11.034;2024-03-02T00:10:22;8.50;99.90
25058;DHT22;13057;50.978;11.034;2024-03-02T00:12:54;8.40;99.90
25058;DHT22;13057;50.978;11.034;2024-03-02T00:15:46;8.40;99.90
25058;DHT22;13057;50.978;11.034;2024-03-02T00:18:13;8.40;99.90
25058;DHT22;13057;50.978;11.034;2024-03-02T00:20:40;8.40;99.90
25058;DHT22;13057;50.978;11.034;2024-03-02T00:23:08;8.40;99.90
25058;DHT22;13057;50.978;11.034;2024-03-02T00:25:41;8.40;99.90
25058;DHT22;13057;50.978;11.034;2024-03-02T00:28:18;8.40;99.90
25058;DHT22;13057;50.978;11.034;2024-03-02T00:31:04;8.40;99.90
25058;DHT22;13057;50.978;11.034;2024-03-02T00:33:33;8.40;99.90
25058;DHT22;13057;50.978;11.034;2024-03-02T00:36:00;8.30;99.90
25058;DHT22;13057;50.978;11.034;2024-03-02T00:38:27;8.30;99.90
25058;DHT22;13057;50.978;11.034;2024-03-02T00:40:54;8.30;99.90
25058;DHT22;13057;50.978;11.034;2024-03-02T00:43:42;8.20;99.90
25058;DHT22;13057;50.978;11.034;2024-03-02T00:46:11;8.20;99.90
25058;DHT22;13057;50.978;11.034;2024-03-02T00:48:37;8.20;99.90
25058;DHT22;13057;50.978;11.034;2024-03-02T00:51:03;8.20;99.90
25058;DHT22;13057;50.978;11.034;2024-03-02T00:53:31;8.10;99.90
25058;DHT22;13057;50.978;11.034;2024-03-02T00:55:58;8.10;99.90
25058;DHT22;13057;50.978;11.034;2024-03-02T00:58:25;8.10;99.90
25058;DHT22;13057;50.978;11.034;2024-03-02T01:00:52;8.20;99.90
25058;DHT22;13057;50.978;11.034;2024-03-02T01:03:18;8.20;99.90
25058;DHT22;13057;50.978;11.034;2024-03-02T01:05:45;8.20;99.90
25058;DHT22;13057;50.978;11.034;2024-03-02T01:08:11;8.30;99.90
25058;DHT22;13057;50.978;11.034;2024-03-02T01:10:37;8.20;99.90
25058;DHT22;13057;50.978;11.034;2024-03-02T01:13:03;8.20;99.90
25058;DHT22;13057;50.978;11.034;2024-03-02T01:15:29;8.20;99.90
25058;DHT22;13057;50.978;11.034;2024-03-02T01:17:55;8.30;99.90
25058;DHT22;13057;50.978;11.034;2024-03-02T01:20:21;8.30;99.90
25058;DHT22;13057;50.978;11.034;2024-03-02T01:22:47;8.30;99.90
25058;DHT22;13057;50.978;11.034;2024-03-02T01:25:13;8.40;99.90
25058;DHT22;13057;50.978;11.034;2024-03-02T01:27:39;8.30;99.90
25058;DHT22;13057;50.978;11.034;2024-03-02T01:30:06;8.30;99.90
25058;DHT22;13057;50.978;11.034;2024-03-02T01:32:31;8.30;99.90
25058;DHT22;13057;50.978;11.034;2024-03-02T01:34:57;8.30;99.90
25058;DHT22;13057;50.978;11.034;2024-03-02T01:37:24;8.30;99.90
25058;DHT22;13057;50.978;11.034;2024-03-02T01:39:50;8.30;99.90
25058;DHT22;13057;50.978;11.034;2024-03-02T01:42:19;8.20;99.90
25058;DHT22;13057;50.978;11.034;2024-03-02T01:44:45;8.30;99.90
25058;DHT22;13057;50.978;11.034;2024-03-02T01:47:11;8.30;99.90
25058;DHT22;13057;50.978;11.034;2024-03-02T01:49:37;8.30;99.90
25058;DHT22;13057;50.978;11.034;2024-03-02T01:52:04;8.30;99.90
25058;DHT22;13057;50.978;11.034;2024-03-02T01:54:30;8.30;99.90
25058;DHT22;13057;50.978;11.034;2024-03-02T01:56:56;8.40;99.90
25058;DHT22;13057;50.978;11.034;2024-03-02T01:59:22;8.40;99.90
25058;DHT22;13057;50.978;11.034;2024-03-02T02:01:47;8.40;99.90
25058;DHT22;13057;50.978;11.034;2024-03-02T02:04:13;8.40;99.90
25058;DHT22;13057;50.978;11.034;2024-03-02T02:06:39;8.40;99.90
25058;DHT22;13057;50.978;11.034;2024-03-02T02:09:06;8.40;99.90
25058;DHT22;13057;50.978;11.034;2024-03-02T02:11:34;8.50;99.90
25058;DHT22;13057;50.978;11.034;2024-03-02T02:14:00;8.40;99.90
25058;DHT22;13057;50.978;11.034;2024-03-02T02:16:26;8.40;99.90
25058;DHT22;13057;50.978;11.034;2024-03-02T02:18:52;8.50;99.90
25058;DHT22;13057;50.978;11.034;2024-03-02T02:21:22;8.40;99.90
25058;DHT22;13057;50.978;11.034;2024-03-02T02:23:49;8.50;99.90
25058;DHT22;13057;50.978;11.034;2024-03-02T02:26:16;8.50;99.90
25058;DHT22;13057;50.978;11.034;2024-03-02T02:28:42;8.50;99.90
25058;DHT22;13057;50.978;11.034;2024-03-02T02:31:13;8.50;99.90
25058;DHT22;13057;50.978;11.034;2024-03-02T02:33:40;8.60;99.90
25058;DHT22;13057;50.978;11.034;2024-03-02T02:36:06;8.60;99.90
25058;DHT22;13057;50.978;11.034;2024-03-02T02:38:33;8.70;99.90
25058;DHT22;13057;50.978;11.034;2024-03-02T02:41:00;8.60;99.90
25058;DHT22;13057;50.978;11.034;2024-03-02T02:43:26;8.70;99.90
25058;DHT22;13057;50.978;11.034;2024-03-02T02:45:52;8.60;99.90
25058;DHT22;13057;50.978;11.034;2024-03-02T02:48:18;8.70;99.90
25058;DHT22;13057;50.978;11.034;2024-03-02T02:50:44;8.60;99.90
25058;DHT22;13057;50.978;11.034;2024-03-02T02:53:09;8.60;99.90
25058;DHT22;13057;50.978;11.034;2024-03-02T02:55:35;8.60;99.90
25058;DHT22;13057;50.978;11.034;2024-03-02T02:58:07;8.50;99.90
25058;DHT22;13057;50.978;11.034;2024-03-02T03:00:33;8.50;99.90
25058;DHT22;13057;50.978;11.034;2024-03-02T03:02:59;8.50;99.90
25058;DHT22;13057;50.978;11.034;2024-03-02T03:05:24;8.50;99.90
25058;DHT22;13057;50.978;11.034;2024-03-02T03:07:50;8.50;99.90
25058;DHT22;13057;50.978;11.034;2024-03-02T03:10:17;8.50;99.90
25058;DHT22;13057;50.978;11.034;2024-03-02T03:12:42;8.50;99.90
25058;DHT22;13057;50.978;11.034;2024-03-02T03:15:09;8.50;99.90
25058;DHT22;13057;50.978;11.034;2024-03-02T03:17:36;8.50;99.90
25058;DHT22;13057;50.978;11.034;2024-03-02T03:20:03;8.50;99.90
25058;DHT22;13057;50.978;11.034;2024-03-02T03:22:30;8.50;99.90
25058;DHT22;13057;50.978;11.034;2024-03-02T03:24:57;8.50;99.90
25058;DHT22;13057;50.978;11.034;2024-03-02T03:27:23;8.50;99.90
25058;DHT22;13057;50.978;11.034;2024-03-02T03:29:49;8.50;99.90
25058;DHT22;13057;50.978;11.034;2024-03-02T03:32:15;8.50;99.90
25058;DHT22;13057;50.978;11.034;2024-03-02T03:34:42;8.50;99.90
25058;DHT22;13057;50.978;11.034;2024-03-02T03:37:08;8.50;99.90
25058;DHT22;13057;50.978;11.034;2024-03-02T03:39:35;8.50;99.90
25058;DHT22;13057;50.978;11.034;2024-03-02T03:42:02;8.40;99.90
25058;DHT22;13057;50.978;11.034;2024-03-02T03:44:27;8.40;99.90
25058;DHT22;13057;50.978;11.034;2024-03-02T03:46:53;8.40;99.90
25058;DHT22;13057;50.978;11.034;2024-03-02T03:49:19;8.40;99.90
25058;DHT22;13057;50.978;11.034;2024-03-02T03:51:46;8.40;99.90
25058;DHT22;13057;50.978;11.034;2024-03-02T03:54:11;8.40;99.90
25058;DHT22;13057;50.978;11.034;2024-03-02T03:56:39;8.40;99.90
25058;DHT22;13057;50.978;11.034;2024-03-02T03:59:04;8.40;99.90
25058;DHT22;13057;50.978;11.034;2024-03-02T04:01:30;8.50;99.90
25058;DHT22;13057;50.978;11.034;2024-03-02T04:03:57;8.50;99.90
25058;DHT22;13057;50.978;11.034;2024-03-02T04:06:24;8.50;99.90
25058;DHT22;13057;50.978;11.034;2024-03-02T04:08:50;8.60;99.90
25058;DHT22;13057;50.978;11.034;2024-03-02T04:11:16;8.60;99.90
25058;DHT22;13057;50.978;11.034;2024-03-02T04:13:42;8.60;99.90
25058;DHT22;13057;50.978;11.034;2024-03-02T04:16:08;8.60;99.90
25058;DHT22;13057;50.978;11.034;2024-03-02T04:18:33;8.60;99.90
25058;DHT22;13057;50.978;11.034;2024-03-02T04:21:00;8.60;99.90
25058;DHT22;13057;50.978;11.034;2024-03-02T04:23:26;8.60;99.90
25058;DHT22;13057;50.978;11.034;2024-03-02T04:25:54;8.70;99.90
25058;DHT22;13057;50.978;11.034;2024-03-02T04:28:20;8.70;99.90
25058;DHT22;13057;50.978;11.034;2024-03-02T04:30:46;8.70;99.90
25058;DHT22;13057;50.978;11.034;2024-03-02T04:33:11;8.70;99.90
25058;DHT22;13057;50.978;11.034;2024-03-02T04:35:37;8.70;99.90
25058;DHT22;13057;50.978;11.034;2024-03-02T04:38:03;8.70;99.90
25058;DHT22;13057;50.978;11.034;2024-03-02T04:40:29;8.60;99.90
25058;DHT22;13057;50.978;11.034;2024-03-02T04:42:55;8.50;99.90
25058;DHT22;13057;50.978;11.034;2024-03-02T04:45:21;8.50;99.90
25058;DHT22;13057;50.978;11.034;2024-03-02T04:47:47;8.40;99.90
25058;DHT22;13057;50.978;11.034;2024-03-02T04:50:12;8.40;99.90
25058;DHT22;13057;50.978;11.034;2024-03-02T04:52:38;8.30;99.90
25058;DHT22;13057;50.978;11.034;2024-03-02T04:55:05;8.30;99.90
25058;DHT22;13057;50.978;11.034;2024-03-02T04:57:43;8.30;99.90
25058;DHT22;13057;50.978;11.034;2024-03-02T05:00:10;8.30;99.90
25058;DHT22;13057;50.978;11.034;2024-03-02T05:02:36;8.30;99.90
25058;DHT22;13057;50.978;11.034;2024-03-02T05:05:02;8.40;99.90
25058;DHT22;13057;50.978;11.034;2024-03-02T05:07:28;8.40;99.90
25058;DHT22;13057;50.978;11.034;2024-03-02T05:09:54;8.40;99.90
25058;DHT22;13057;50.978;11.034;2024-03-02T05:12:20;8.40;99.90
25058;DHT22;13057;50.978;11.034;2024-03-02T05:14:55;8.40;99.90
25058;DHT22;13057;50.978;11.034;2024-03-02T05:17:21;8.30;99.90
25058;DHT22;13057;50.978;11.034;2024-03-02T05:19:47;8.30;99.90
25058;DHT22;13057;50.978;11.034;2024-03-02T05:22:13;8.30;99.90
25058;DHT22;13057;50.978;11.034;2024-03-02T05:24:39;8.30;99.90
25058;DHT22;13057;50.978;11.034;2024-03-02T05:27:05;8.20;99.90
25058;DHT22;13057;50.978;11.034;2024-03-02T05:29:33;8.20;99.90
25058;DHT22;13057;50.978;11.034;2024-03-02T05:31:58;8.20;99.90
25058;DHT22;13057;50.978;11.034;2024-03-02T05:34:24;8.30;99.90
25058;DHT22;13057;50.978;11.034;2024-03-02T05:36:50;8.30;99.90
25058;DHT22;13057;50.978;11.034;2024-03-02T05:39:16;8.30;99.90
25058;DHT22;13057;50.978;11.034;2024-03-02T05:41:42;8.30;99.90
25058;DHT22;13057;50.978;11.034;2024-03-02T05:44:07;8.20;99.90
25058;DHT22;13057;50.978;11.034;2024-03-02T05:46:34;8.20;99.90
25058;DHT22;13057;50.978;11.034;2024-03-02T05:49:00;8.20;99.90
25058;DHT22;13057;50.978;11.034;2024-03-02T05:51:26;8.10;99.90
25058;DHT22;13057;50.978;11.034;2024-03-02T05:53:52;8.10;99.90
25058;DHT22;13057;50.978;11.034;2024-03-02T05:56:18;8.10;99.90
25058;DHT22;13057;50.978;11.034;2024-03-02T05:58:44;8.10;99.90
25058;DHT22;13057;50.978;11.034;2024-03-02T06:01:29;8.10;99.90
25058;DHT22;13057;50.978;11.034;2024-03-02T06:03:56;8.00;99.90
25058;DHT22;13057;50.978;11.034;2024-03-02T06:06:24;8.10;99.90
25058;DHT22;13057;50.978;11.034;2024-03-02T06:08:49;8.00;99.90
25058;DHT22;13057;50.978;11.034;2024-03-02T06:11:15;8.00;99.90
25058;DHT22;13057;50.978;11.034;2024-03-02T06:13:42;8.10;99.90
25058;DHT22;13057;50.978;11.034;2024-03-02T06:16:07;8.00;99.90
25058;DHT22;13057;50.978;11.034;2024-03-02T06:18:34;8.00;99.90
25058;DHT22;13057;50.978;11.034;2024-03-02T06:21:00;8.10;99.90
25058;DHT22;13057;50.978;11.034;2024-03-02T06:23:27;8.10;99.90
25058;DHT22;13057;50.978;11.034;2024-03-02T06:25:53;8.00;99.90
25058;DHT22;13057;50.978;11.034;2024-03-02T06:28:19;8.10;99.90
25058;DHT22;13057;50.978;11.034;2024-03-02T06:30:44;8.10;99.90
25058;DHT22;13057;50.978;11.034;2024-03-02T06:33:11;8.10;99.90
25058;DHT22;13057;50.978;11.034;2024-03-02T06:35:37;8.10;99.90
25058;DHT22;13057;50.978;11.034;2024-03-02T06:38:03;8.10;99.90
25058;DHT22;13057;50.978;11.034;2024-03-02T06:40:29;8.10;99.90
25058;DHT22;13057;50.978;11.034;2024-03-02T06:42:55;8.20;99.90
25058;DHT22;13057;50.978;11.034;2024-03-02T06:45:21;8.20;99.90
25058;DHT22;13057;50.978;11.034;2024-03-02T06:47:47;8.30;99.90
25058;DHT22;13057;50.978;11.034;2024-03-02T06:50:13;8.40;99.90
25058;DHT22;13057;50.978;11.034;2024-03-02T06:52:38;8.40;99.90
25058;DHT22;13057;50.978;11.034;2024-03-02T06:55:05;8.50;99.90
25058;DHT22;13057;50.978;11.034;2024-03-02T06:57:32;8.50;99.90
25058;DHT22;13057;50.978;11.034;2024-03-02T06:59:58;8.60;99.90
25058;DHT22;13057;50.978;11.034;2024-03-02T07:02:25;8.70;99.90
25058;DHT22;13057;50.978;11.034;2024-03-02T07:04:54;8.70;99.90
25058;DHT22;13057;50.978;11.034;2024-03-02T07:07:20;8.70;99.90
25058;DHT22;13057;50.978;11.034;2024-03-02T07:09:46;8.80;99.90
25058;DHT22;13057;50.978;11.034;2024-03-02T07:12:13;8.80;99.90
25058;DHT22;13057;50.978;11.034;2024-03-02T07:14:39;8.90;99.90
25058;DHT22;13057;50.978;11.034;2024-03-02T07:17:21;8.90;99.90
25058;DHT22;13057;50.978;11.034;2024-03-02T07:19:46;9.00;99.90
25058;DHT22;13057;50.978;11.034;2024-03-02T07:22:13;9.00;99.90
25058;DHT22;13057;50.978;11.034;2024-03-02T07:24:40;9.10;99.90
25058;DHT22;13057;50.978;11.034;2024-03-02T07:27:06;9.10;99.90
25058;DHT22;13057;50.978;11.034;2024-03-02T07:29:32;9.10;99.90
25058;DHT22;13057;50.978;11.034;2024-03-02T07:31:58;9.20;99.90
25058;DHT22;13057;50.978;11.034;2024-03-02T07:34:24;9.20;99.90
25058;DHT22;13057;50.978;11.034;2024-03-02T07:36:50;9.20;99.90
25058;DHT22;13057;50.978;11.034;2024-03-02T07:39:16;9.30;99.90
25058;DHT22;13057;50.978;11.034;2024-03-02T07:41:42;9.30;99.90
25058;DHT22;13057;50.978;11.034;2024-03-02T07:44:09;9.30;99.90
25058;DHT22;13057;50.978;11.034;2024-03-02T07:46:35;9.40;99.90
25058;DHT22;13057;50.978;11.034;2024-03-02T07:49:01;9.40;99.90
25058;DHT22;13057;50.978;11.034;2024-03-02T07:51:27;9.40;99.90
25058;DHT22;13057;50.978;11.034;2024-03-02T07:53:53;9.50;99.90
25058;DHT22;13057;50.978;11.034;2024-03-02T07:56:19;9.50;99.90
25058;DHT22;13057;50.978;11.034;2024-03-02T07:58:48;9.60;99.90
25058;DHT22;13057;50.978;11.034;2024-03-02T08:01:15;9.60;99.90
25058;DHT22;13057;50.978;11.034;2024-03-02T08:03:41;9.60;99.90
25058;DHT22;13057;50.978;11.034;2024-03-02T08:06:08;9.60;99.90
25058;DHT22;13057;50.978;11.034;2024-03-02T08:08:34;9.70;99.90
25058;DHT22;13057;50.978;11.034;2024-03-02T08:11:00;9.60;99.90
25058;DHT22;13057;50.978;11.034;2024-03-02T08:13:26;9.70;99.90
25058;DHT22;13057;50.978;11.034;2024-03-02T08:15:52;9.70;99.90
25058;DHT22;13057;50.978;11.034;2024-03-02T08:18:18;9.70;99.90
25058;DHT22;13057;50.978;11.034;2024-03-02T08:20:44;9.70;99.90
25058;DHT22;13057;50.978;11.034;2024-03-02T08:23:10;9.70;99.90
25058;DHT22;13057;50.978;11.034;2024-03-02T08:25:36;9.80;99.90
25058;DHT22;13057;50.978;11.034;2024-03-02T08:28:03;9.80;99.90
25058;DHT22;13057;50.978;11.034;2024-03-02T08:30:29;9.90;99.90
25058;DHT22;13057;50.978;11.034;2024-03-02T08:32:54;9.90;99.90
25058;DHT22;13057;50.978;11.034;2024-03-02T08:35:20;10.00;99.90
25058;DHT22;13057;50.978;11.034;2024-03-02T08:37:48;10.00;99.90
25058;DHT22;13057;50.978;11.034;2024-03-02T08:40:14;10.10;99.90
25058;DHT22;13057;50.978;11.034;2024-03-02T08:42:40;10.20;99.90
25058;DHT22;13057;50.978;11.034;2024-03-02T08:45:07;10.30;99.90
25058;DHT22;13057;50.978;11.034;2024-03-02T08:47:33;10.30;99.90
25058;DHT22;13057;50.978;11.034;2024-03-02T08:50:00;10.40;99.90
25058;DHT22;13057;50.978;11.034;2024-03-02T08:52:26;10.50;99.90
25058;DHT22;13057;50.978;11.034;2024-03-02T08:54:52;10.50;99.90
25058;DHT22;13057;50.978;11.034;2024-03-02T08:57:18;10.60;99.90
25058;DHT22;13057;50.978;11.034;2024-03-02T08:59:44;10.70;99.90
25058;DHT22;13057;50.978;11.034;2024-03-02T09:02:11;10.80;99.90
25058;DHT22;13057;50.978;11.034;2024-03-02T09:04:37;10.90;99.90
25058;DHT22;13057;50.978;11.034;2024-03-02T09:07:03;11.00;99.90
25058;DHT22;13057;50.978;11.034;2024-03-02T09:09:30;11.10;99.90
25058;DHT22;13057;50.978;11.034;2024-03-02T09:11:57;12.40;99.90
25058;DHT22;13057;50.978;11.034;2024-03-02T09:14:24;13.30;99.90
25058;DHT22;13057;50.978;11.034;2024-03-02T09:16:50;12.50;99.90
25058;DHT22;13057;50.978;11.034;2024-03-02T09:19:16;12.60;99.90
25058;DHT22;13057;50.978;11.034;2024-03-02T09:21:42;13.60;99.90
25058;DHT22;13057;50.978;11.034;2024-03-02T09:24:09;14.30;99.90
25058;DHT22;13057;50.978;11.034;2024-03-02T09:26:36;14.80;99.90
25058;DHT22;13057;50.978;11.034;2024-03-02T09:29:01;15.30;99.90
25058;DHT22;13057;50.978;11.034;2024-03-02T09:31:27;15.70;99.90
25058;DHT22;13057;50.978;11.034;2024-03-02T09:33:54;15.60;99.90
25058;DHT22;13057;50.978;11.034;2024-03-02T09:36:20;15.40;99.90
25058;DHT22;13057;50.978;11.034;2024-03-02T09:38:47;14.90;99.90
25058;DHT22;13057;50.978;11.034;2024-03-02T09:41:15;14.40;99.90
25058;DHT22;13057;50.978;11.034;2024-03-02T09:43:41;13.60;99.90
25058;DHT22;13057;50.978;11.034;2024-03-02T09:46:09;13.00;99.90
25058;DHT22;13057;50.978;11.034;2024-03-02T09:48:36;12.30;99.90
25058;DHT22;13057;50.978;11.034;2024-03-02T09:51:05;11.60;99.90
25058;DHT22;13057;50.978;11.034;2024-03-02T09:53:32;11.40;99.90
25058;DHT22;13057;50.978;11.034;2024-03-02T09:56:00;11.10;99.90
25058;DHT22;13057;50.978;11.034;2024-03-02T09:58:26;10.90;99.90
25058;DHT22;13057;50.978;11.034;2024-03-02T10:00:52;10.80;99.90
25058;DHT22;13057;50.978;11.034;2024-03-02T10:03:19;10.70;99.90
25058;DHT22;13057;50.978;11.034;2024-03-02T10:05:45;10.60;99.90
25058;DHT22;13057;50.978;11.034;2024-03-02T10:08:11;10.90;99.90
25058;DHT22;13057;50.978;11.034;2024-03-02T10:10:38;10.90;99.90
25058;DHT22;13057;50.978;11.034;2024-03-02T10:13:07;10.90;99.90
25058;DHT22;13057;50.978;11.034;2024-03-02T10:15:34;11.10;99.90
25058;DHT22;13057;50.978;11.034;2024-03-02T10:18:12;11.20;99.90
25058;DHT22;13057;50.978;11.034;2024-03-02T10:20:42;11.20;99.90
25058;DHT22;13057;50.978;11.034;2024-03-02T10:23:24;11.20;99.90
25058;DHT22;13057;50.978;11.034;2024-03-02T10:25:51;11.30;99.90
25058;DHT22;13057;50.978;11.034;2024-03-02T10:28:30;11.40;99.90
25058;DHT22;13057;50.978;11.034;2024-03-02T10:31:00;11.50;99.90
25058;DHT22;13057;50.978;11.034;2024-03-02T10:33:31;11.50;99.90
25058;DHT22;13057;50.978;11.034;2024-03-02T10:35:58;11.50;99.90
25058;DHT22;13057;50.978;11.034;2024-03-02T10:38:25;11.60;99.90
25058;DHT22;13057;50.978;11.034;2024-03-02T10:40:52;11.60;99.90
25058;DHT22;13057;50.978;11.034;2024-03-02T10:43:22;11.70;99.90
25058;DHT22;13057;50.978;11.034;2024-03-02T10:45:50;11.70;99.90
25058;DHT22;13057;50.978;11.034;2024-03-02T10:48:18;11.80;99.90
25058;DHT22;13057;50.978;11.034;2024-03-02T10:50:45;11.70;99.90
25058;DHT22;13057;50.978;11.034;2024-03-02T10:53:15;11.80;99.90
25058;DHT22;13057;50.978;11.034;2024-03-02T10:55:42;11.80;99.90
25058;DHT22;13057;50.978;11.034;2024-03-02T10:58:12;11.80;99.90
25058;DHT22;13057;50.978;11.034;2024-03-02T11:00:41;11.90;99.90
25058;DHT22;13057;50.978;11.034;2024-03-02T11:03:11;12.00;99.90
25058;DHT22;13057;50.978;11.034;2024-03-02T11:05:41;12.00;99.90
25058;DHT22;13057;50.978;11.034;2024-03-02T11:08:16;11.90;99.90
25058;DHT22;13057;50.978;11.034;2024-03-02T11:10:58;12.00;99.90
25058;DHT22;13057;50.978;11.034;2024-03-02T11:13:31;12.00;99.90
25058;DHT22;13057;50.978;11.034;2024-03-02T11:16:06;12.10;99.90
25058;DHT22;13057;50.978;11.034;2024-03-02T11:18:42;12.00;99.90
25058;DHT22;13057;50.978;11.034;2024-03-02T11:21:08;12.00;99.90
25058;DHT22;13057;50.978;11.034;2024-03-02T11:23:35;12.00;99.90
25058;DHT22;13057;50.978;11.034;2024-03-02T11:26:17;11.90;99.90
25058;DHT22;13057;50.978;11.034;2024-03-02T11:28:44;11.90;99.90
25058;DHT22;13057;50.978;11.034;2024-03-02T11:31:09;11.90;99.90
25058;DHT22;13057;50.978;11.034;2024-03-02T11:33:35;11.90;99.90
25058;DHT22;13057;50.978;11.034;2024-03-02T11:36:02;12.00;99.90
25058;DHT22;13057;50.978;11.034;2024-03-02T11:38:30;12.10;99.90
25058;DHT22;13057;50.978;11.034;2024-03-02T11:40:57;12.20;99.90
25058;DHT22;13057;50.978;11.034;2024-03-02T11:43:26;12.20;99.90
25058;DHT22;13057;50.978;11.034;2024-03-02T11:46:00;12.20;99.90
25058;DHT22;13057;50.978;11.034;2024-03-02T11:48:33;12.20;99.90
25058;DHT22;13057;50.978;11.034;2024-03-02T11:51:00;12.30;99.90
25058;DHT22;13057;50.978;11.034;2024-03-02T11:53:27;12.40;99.90
25058;DHT22;13057;50.978;11.034;2024-03-02T11:55:55;12.50;99.90
25058;DHT22;13057;50.978;11.034;2024-03-02T11:58:21;12.50;99.90
25058;DHT22;13057;50.978;11.034;2024-03-02T12:00:51;12.50;99.90
25058;DHT22;13057;50.978;11.034;2024-03-02T12:03:21;12.60;99.90
25058;DHT22;13057;50.978;11.034;2024-03-02T12:05:50;12.70;99.90
25058;DHT22;13057;50.978;11.034;2024-03-02T12:08:16;12.80;99.90
25058;DHT22;13057;50.978;11.034;2024-03-02T12:10:43;12.80;99.90
25058;DHT22;13057;50.978;11.034;2024-03-02T12:13:21;12.80;99.90
25058;DHT22;13057;50.978;11.034;2024-03-02T12:15:53;12.80;99.90
25058;DHT22;13057;50.978;11.034;2024-03-02T12:18:21;12.80;99.90
25058;DHT22;13057;50.978;11.034;2024-03-02T12:20:49;12.90;99.90
25058;DHT22;13057;50.978;11.034;2024-03-02T12:23:21;13.00;99.90
25058;DHT22;13057;50.978;11.034;2024-03-02T12:25:47;13.00;99.90
25058;DHT22;13057;50.978;11.034;2024-03-02T12:28:17;13.00;99.90
25058;DHT22;13057;50.978;11.034;2024-03-02T12:30:43;13.00;99.90
25058;DHT22;13057;50.978;11.034;2024-03-02T12:33:11;13.00;99.90
25058;DHT22;13057;50.978;11.034;2024-03-02T12:35:37;13.00;99.90
25058;DHT22;13057;50.978;11.034;2024-03-02T12:38:03;13.10;99.90
25058;DHT22;13057;50.978;11.034;2024-03-02T12:40:30;13.10;99.70
25058;DHT22;13057;50.978;11.034;2024-03-02T12:42:57;13.20;99.10
25058;DHT22;13057;50.978;11.034;2024-03-02T12:45:23;13.30;99.40
25058;DHT22;13057;50.978;11.034;2024-03-02T12:48:04;13.30;97.30
25058;DHT22;13057;50.978;11.034;2024-03-02T12:50:33;13.20;97.90
25058;DHT22;13057;50.978;11.034;2024-03-02T12:52:59;13.30;96.50
25058;DHT22;13057;50.978;11.034;2024-03-02T12:55:25;13.20;97.00
25058;DHT22;13057;50.978;11.034;2024-03-02T12:57:52;13.30;96.30
25058;DHT22;13057;50.978;11.034;2024-03-02T13:00:19;13.30;97.20
25058;DHT22;13057;50.978;11.034;2024-03-02T13:02:46;13.30;96.10
25058;DHT22;13057;50.978;11.034;2024-03-02T13:05:19;13.30;96.20
25058;DHT22;13057;50.978;11.034;2024-03-02T13:07:47;13.30;97.40
25058;DHT22;13057;50.978;11.034;2024-03-02T13:10:13;13.40;97.80
25058;DHT22;13057;50.978;11.034;2024-03-02T13:12:39;13.40;98.20
25058;DHT22;13057;50.978;11.034;2024-03-02T13:15:05;13.40;97.70
25058;DHT22;13057;50.978;11.034;2024-03-02T13:17:38;13.40;98.70
25058;DHT22;13057;50.978;11.034;2024-03-02T13:20:05;13.40;98.60
25058;DHT22;13057;50.978;11.034;2024-03-02T13:22:48;13.40;98.00
25058;DHT22;13057;50.978;11.034;2024-03-02T13:25:14;13.40;98.70
25058;DHT22;13057;50.978;11.034;2024-03-02T13:27:41;13.40;98.50
25058;DHT22;13057;50.978;11.034;2024-03-02T13:30:10;13.40;98.40
25058;DHT22;13057;50.978;11.034;2024-03-02T13:32:36;13.40;98.20
25058;DHT22;13057;50.978;11.034;2024-03-02T13:35:02;13.40;98.70
25058;DHT22;13057;50.978;11.034;2024-03-02T13:37:28;13.40;98.60
25058;DHT22;13057;50.978;11.034;2024-03-02T13:39:54;13.50;98.40
25058;DHT22;13057;50.978;11.034;2024-03-02T13:42:20;13.50;98.80
25058;DHT22;13057;50.978;11.034;2024-03-02T13:44:46;13.60;98.70
25058;DHT22;13057;50.978;11.034;2024-03-02T13:47:14;13.70;97.90
25058;DHT22;13057;50.978;11.034;2024-03-02T13:49:40;13.70;97.30
25058;DHT22;13057;50.978;11.034;2024-03-02T13:52:09;13.70;98.40
25058;DHT22;13057;50.978;11.034;2024-03-02T13:54:40;13.70;98.20
25058;DHT22;13057;50.978;11.034;2024-03-02T13:57:07;13.70;98.30
25058;DHT22;13057;50.978;11.034;2024-03-02T13:59:34;13.70;98.70
25058;DHT22;13057;50.978;11.034;2024-03-02T14:02:02;13.80;99.10
25058;DHT22;13057;50.978;11.034;2024-03-02T14:04:33;13.80;99.90
25058;DHT22;13057;50.978;11.034;2024-03-02T14:06:59;13.80;99.90
25058;DHT22;13057;50.978;11.034;2024-03-02T14:09:26;13.80;99.90
25058;DHT22;13057;50.978;11.034;2024-03-02T14:11:53;13.80;99.90
25058;DHT22;13057;50.978;11.034;2024-03-02T14:14:32;13.80;99.60
25058;DHT22;13057;50.978;11.034;2024-03-02T14:17:16;13.70;99.90
25058;DHT22;13057;50.978;11.034;2024-03-02T14:19:53;13.70;99.00
25058;DHT22;13057;50.978;11.034;2024-03-02T14:22:20;13.70;98.80
25058;DHT22;13057;50.978;11.034;2024-03-02T14:24:47;13.70;99.90
25058;DHT22;13057;50.978;11.034;2024-03-02T14:27:15;13.70;99.90
25058;DHT22;13057;50.978;11.034;2024-03-02T14:29:42;13.70;99.80
25058;DHT22;13057;50.978;11.034;2024-03-02T14:32:08;13.70;99.90
25058;DHT22;13057;50.978;11.034;2024-03-02T14:34:37;13.70;99.80
25058;DHT22;13057;50.978;11.034;2024-03-02T14:37:04;13.70;99.80
25058;DHT22;13057;50.978;11.034;2024-03-02T14:39:30;13.60;99.60
25058;DHT22;13057;50.978;11.034;2024-03-02T14:42:00;13.70;99.90
25058;DHT22;13057;50.978;11.034;2024-03-02T14:44:27;13.60;99.00
25058;DHT22;13057;50.978;11.034;2024-03-02T14:46:52;13.60;99.30
25058;DHT22;13057;50.978;11.034;2024-03-02T14:49:19;13.60;99.10
25058;DHT22;13057;50.978;11.034;2024-03-02T14:51:44;13.60;99.10
25058;DHT22;13057;50.978;11.034;2024-03-02T14:54:10;13.60;99.10
25058;DHT22;13057;50.978;11.034;2024-03-02T14:56:36;13.60;98.60
25058;DHT22;13057;50.978;11.034;2024-03-02T14:59:08;13.60;98.10
25058;DHT22;13057;50.978;11.034;2024-03-02T15:01:34;13.60;98.10
25058;DHT22;13057;50.978;11.034;2024-03-02T15:04:00;13.60;95.90
25058;DHT22;13057;50.978;11.034;2024-03-02T15:06:26;13.50;94.60
25058;DHT22;13057;50.978;11.034;2024-03-02T15:08:51;13.50;95.60
25058;DHT22;13057;50.978;11.034;2024-03-02T15:11:20;13.60;95.20
25058;DHT22;13057;50.978;11.034;2024-03-02T15:13:48;13.60;95.70
25058;DHT22;13057;50.978;11.034;2024-03-02T15:16:14;13.50;95.90
25058;DHT22;13057;50.978;11.034;2024-03-02T15:18:40;13.50;96.50
25058;DHT22;13057;50.978;11.034;2024-03-02T15:21:06;13.50;97.60
25058;DHT22;13057;50.978;11.034;2024-03-02T15:23:32;13.50;97.90
25058;DHT22;13057;50.978;11.034;2024-03-02T15:25:58;13.40;98.80